createdAt,value
2022-08-03T00:07:33.521Z,19.6
2022-08-03T00:17:53.157Z,19.5
2022-08-03T00:27:38.622Z,19.4
2022-08-03T00:37:41.938Z,19.2
2022-08-03T00:57:45.518Z,19.1
2022-08-03T01:07:47.417Z,19
2022-08-03T01:17:49.588Z,18.9
2022-08-03T01:27:51.397Z,18.9
2022-08-03T01:37:53.073Z,18.8
2022-08-03T01:47:55.208Z,18.7
2022-08-03T01:58:05.044Z,18.7
2022-08-03T02:07:59.665Z,18.6
2022-08-03T02:18:02.026Z,18.5
2022-08-03T02:28:03.746Z,18.5
2022-08-03T02:48:08.283Z,18.3
2022-08-03T02:58:10.939Z,18.2
2022-08-03T03:08:17.598Z,18.1
2022-08-03T03:18:18.922Z,18.1
2022-08-03T03:28:17.782Z,18.1
2022-08-03T03:38:20.167Z,18.1
2022-08-03T03:48:22.680Z,18.1
2022-08-03T03:58:25.007Z,18
2022-08-03T04:08:27.281Z,18
2022-08-03T04:18:29.664Z,18.1
2022-08-03T04:28:32.104Z,18.2
2022-08-03T04:48:35.254Z,19
2022-08-03T04:58:37.112Z,19.2
2022-08-03T05:08:45.270Z,19.7
2022-08-03T05:18:41.441Z,20.7
2022-08-03T05:28:49.947Z,21
2022-08-03T05:38:45.070Z,21.6
2022-08-03T05:48:47.004Z,22.1
2022-08-03T05:58:49.328Z,22.6
2022-08-03T06:08:51.326Z,23.7
2022-08-03T06:18:53.280Z,24.2
2022-08-03T06:28:55.589Z,24.6
2022-08-03T06:38:58.069Z,25.1
2022-08-03T06:48:59.930Z,25.3
2022-08-03T06:59:02.213Z,25.7
2022-08-03T07:09:04.772Z,26.5
2022-08-03T07:19:06.994Z,26.4
2022-08-03T07:29:11.754Z,26.5
2022-08-03T07:49:13.205Z,27.6
2022-08-03T07:59:15.113Z,27.4
2022-08-03T08:09:17.114Z,28
2022-08-03T08:11:55.499Z,28
2022-08-03T08:19:30.668Z,28.9
2022-08-03T08:29:30.559Z,29.2
2022-08-03T08:39:32.769Z,29
2022-08-03T08:59:36.857Z,29.5
2022-08-03T09:10:10.714Z,29.8
2022-08-03T09:19:41.142Z,29.8
2022-08-03T09:29:43.189Z,29.9
2022-08-03T09:39:45.594Z,30.3
2022-08-03T09:49:48.174Z,30.7
2022-08-03T09:59:50.864Z,30.8
2022-08-03T10:09:53.383Z,30.9
2022-08-03T10:19:55.382Z,30.3
2022-08-03T10:29:57.336Z,31.3
2022-08-03T10:39:59.406Z,31.3
2022-08-03T10:50:02.028Z,30.7
2022-08-03T11:00:04.027Z,30.3
2022-08-03T11:10:10.284Z,31.2
2022-08-03T11:20:08.033Z,31.7
2022-08-03T11:30:10.517Z,32.1
2022-08-03T11:40:12.578Z,32.7
2022-08-03T11:50:14.554Z,32.3
2022-08-03T12:00:16.320Z,32.8
2022-08-03T12:10:18.880Z,32.7
2022-08-03T12:20:21.411Z,32.7
2022-08-03T12:30:23.995Z,32.6
2022-08-03T12:40:28.068Z,32.6
2022-08-03T13:00:30.063Z,32.8
2022-08-03T13:10:31.917Z,33.1
2022-08-03T13:30:36.629Z,33.4
2022-08-03T13:50:43.030Z,34
2022-08-03T14:00:43.714Z,34
2022-08-03T14:10:46.148Z,34.2
2022-08-03T14:20:51.582Z,34
2022-08-03T14:30:50.244Z,34.1
2022-08-03T14:40:52.755Z,33.3
2022-08-03T14:50:55.242Z,32.8
2022-08-03T15:00:57.533Z,32.7
2022-08-03T15:41:13.703Z,32.9
2022-08-03T17:31:32.451Z,31.7
2022-08-03T17:41:33.801Z,31.7
2022-08-03T17:51:36.203Z,31.6
2022-08-03T18:01:57.633Z,31.4
2022-08-03T18:11:40.438Z,31.2
2022-08-03T18:22:02.493Z,30.7
2022-08-03T18:32:00.360Z,30.3
2022-08-03T18:41:47.850Z,29.8
2022-08-03T18:51:49.937Z,29.5
2022-08-03T19:31:59.961Z,27.8
2022-08-03T19:42:03.443Z,27.3
2022-08-03T19:52:03.555Z,26.8
2022-08-03T20:02:05.727Z,26.4
2022-08-03T20:22:18.021Z,25.6
2022-08-03T20:32:12.378Z,25.5
2022-08-03T20:52:17.990Z,24.9
2022-08-03T21:12:21.771Z,24.4
2022-08-03T21:22:23.453Z,24.1
2022-08-03T21:32:32.942Z,23.9
2022-08-03T21:42:27.471Z,23.7
2022-08-03T21:52:29.641Z,23.6
2022-08-03T22:02:32.486Z,23.4
2022-08-03T22:12:34.180Z,23.2
2022-08-03T22:22:36.559Z,23
2022-08-03T22:32:39.353Z,22.9
2022-08-03T22:42:41.435Z,22.7
2022-08-03T22:52:43.646Z,22.5
2022-08-03T23:12:47.384Z,22.3
2022-08-03T23:22:49.511Z,22.2
2022-08-03T23:32:53.925Z,22.1
2022-08-03T23:42:53.411Z,22
2022-08-03T23:52:55.413Z,21.9
